KACV

Arcata Airport

Airport
ICAO code
KACV
Summary
ICAO Region
NAM
ICAO Territory
Location

Arcata, California, California

Serving
Humboldt County
Coordinates
40° 58' 15" N , 124° 6' 23" W
KCC
Airport WX
Fog
Metar
Observation
KACV 031953Z AUTO 17017G25KT 10SM FEW042 BKN055 BKN070 14/07 A3018 RMK AO2 RAB32E41 SLP224 P0000 T01440067
Station
Arcata / Eureka, Arcata Airport
Date/Time
2023-02-03 19:53:00
Wind direction
170°
Wind speed
17 kts
Lowest cloud amount
few clouds
Temperature
14.4°C
Dew point
6.7°C
Humidity
59%
Weather condition
n/a

Arcata Airport, also known as Arcata/Eureka Airport, is an airport located 24 km north of Eureka in the unincorporated town of McKinleyville, California. This regional airport serves Humboldt County, including the two primary regional cities that compose its name: Arcata and Eureka.

Climatology

Dry-summer subtropical ”Mediterranean" climate (Köppen climate classification Csb) - characterized by warm, dry summers and mild winters.

Airport map

Aerial View

SKYbrary Partners:

Safety knowledge contributed by: